Hillsdale, IL (61257)

4:02 AM CDT on May 24, 2015 (GMT -0500)
Lakeside Court | Change Station
CLOSE
Current Station
Personal Weather Station
Location: Port Byron, IL
Elevation: 725 ft
Nearby Weather Stations

Elev 725 ft 41.62 °N, 90.31 °W | Updated 8 seconds ago

Overcast
Overcast
63.7 °F
Feels Like 63.7 °F
N
-
Wind Variable Wind from North

Today
High -- | Low -- °F
--% Chance of Precip.
Yesterday
High -- | Low -- °F
Precip. -- in
5:34 AM 8:21 PM
Waxing Crescent, 37% visible
Pressure 30.19 in
Visibility 10.0 miles
Clouds Overcast 7500 ft
Dew Point 52 °F
Humidity 65%
Rainfall -999.00 in
Snow Depth Not available.
UV 0 out of 12
Pollen 8.60 out of 12
Air Quality Not available.
Flu Activity Sporadic
METAR KCWI 240855Z AUTO 19016G20KT 10SM OVC075 18/10 A3019 RMK AO1 52007

More Conditions Fewer Conditions

Pressure 30.19 in
Visibility 10.0 miles
Clouds Overcast 7500 ft
Dew Point 52 °F
Humidity 65%
Rainfall -999.00 in
Snow Depth Not available.
UV 0 out of 12
Pollen 8.60 out of 12
Air Quality Not available.
Flu Activity Sporadic
METAR KCWI 240855Z AUTO 19016G20KT 10SM OVC075 18/10 A3019 RMK AO1 52007

More Conditions Fewer Conditions

10-Day Weather Forecast

Almanac

Astronomy

May. 24, 2015 Rise Set
Actual Time 5:34 AM CDT 8:21 PM CDT
Civil Twilight 5:01 AM CDT 8:54 PM CDT
Nautical Twilight 4:20 AM CDT 9:35 PM CDT
Astronomical Twilight 3:33 AM CDT 10:23 PM CDT
Moon 11:48 AM CDT 12:48 AM CDT
Length of Visible Light 15h 53m
Length of Day
14h 47m
Tomorrow will be 1m 37s longer.
Waxing Crescent, 37% of the Moon is Illuminated
Today
Waxing Crescent
May 25
First Quarter
Jun 2
Full
Jun 9
Last Quarter
Jun 16
New

Today's Extremes

State Highs State Lows

Community

WunderPhotos

Upload Photos

1,823,697 photos uploaded!

Nearby

Snow Depth

Station Depth Elevation
No new snow has been reported.

Earthquake Activity

City Distance Mag. Time & Date
No recent earthquake activity has been reported nearby.
Minimum magnitude displayed is 2.5.

Coastal Water Temperatures

Place Temperature
No Stations Reporting

Nearby Weather Stations